sensor_id;sensor_type;location;lat;lon;timestamp;P1;durP1;ratioP1;P2;durP2;ratioP2
45792;SDS011;31495;42.740;22.908;2023-03-29T00:00:17;11.20;;;3.10;;
45792;SDS011;31495;42.740;22.908;2023-03-29T00:01:17;5.75;;;3.30;;
45792;SDS011;31495;42.740;22.908;2023-03-29T00:02:17;6.63;;;3.22;;
45792;SDS011;31495;42.740;22.908;2023-03-29T00:03:17;6.97;;;3.30;;
45792;SDS011;31495;42.740;22.908;2023-03-29T00:04:17;4.70;;;2.63;;
45792;SDS011;31495;42.740;22.908;2023-03-29T00:05:20;3.40;;;2.42;;
45792;SDS011;31495;42.740;22.908;2023-03-29T00:06:21;4.00;;;2.38;;
45792;SDS011;31495;42.740;22.908;2023-03-29T00:07:20;8.63;;;2.67;;
45792;SDS011;31495;42.740;22.908;2023-03-29T00:08:22;3.67;;;2.38;;
45792;SDS011;31495;42.740;22.908;2023-03-29T00:09:22;8.18;;;2.75;;
45792;SDS011;31495;42.740;22.908;2023-03-29T00:10:24;3.80;;;2.78;;
45792;SDS011;31495;42.740;22.908;2023-03-29T00:11:25;3.85;;;2.38;;
45792;SDS011;31495;42.740;22.908;2023-03-29T00:12:25;3.78;;;2.10;;
45792;SDS011;31495;42.740;22.908;2023-03-29T00:13:25;5.28;;;2.92;;
45792;SDS011;31495;42.740;22.908;2023-03-29T00:14:25;3.60;;;2.35;;
45792;SDS011;31495;42.740;22.908;2023-03-29T00:16:26;7.32;;;2.58;;
45792;SDS011;31495;42.740;22.908;2023-03-29T00:17:25;5.72;;;2.00;;
45792;SDS011;31495;42.740;22.908;2023-03-29T00:18:25;6.18;;;3.20;;
45792;SDS011;31495;42.740;22.908;2023-03-29T00:19:25;5.30;;;3.00;;
45792;SDS011;31495;42.740;22.908;2023-03-29T00:20:25;6.57;;;2.53;;
45792;SDS011;31495;42.740;22.908;2023-03-29T00:21:24;5.93;;;2.92;;
45792;SDS011;31495;42.740;22.908;2023-03-29T00:22:23;9.32;;;3.00;;
45792;SDS011;31495;42.740;22.908;2023-03-29T00:23:24;6.45;;;2.55;;
45792;SDS011;31495;42.740;22.908;2023-03-29T00:24:24;7.78;;;2.92;;
45792;SDS011;31495;42.740;22.908;2023-03-29T00:25:23;4.93;;;2.40;;
45792;SDS011;31495;42.740;22.908;2023-03-29T00:26:22;5.85;;;3.20;;
45792;SDS011;31495;42.740;22.908;2023-03-29T00:27:23;9.43;;;3.28;;
45792;SDS011;31495;42.740;22.908;2023-03-29T00:28:22;8.63;;;3.08;;
45792;SDS011;31495;42.740;22.908;2023-03-29T00:29:22;4.93;;;3.33;;
45792;SDS011;31495;42.740;22.908;2023-03-29T00:30:22;4.78;;;2.85;;
45792;SDS011;31495;42.740;22.908;2023-03-29T00:31:21;4.90;;;2.78;;
45792;SDS011;31495;42.740;22.908;2023-03-29T00:32:20;3.72;;;2.50;;
45792;SDS011;31495;42.740;22.908;2023-03-29T00:33:20;3.78;;;2.55;;
45792;SDS011;31495;42.740;22.908;2023-03-29T00:34:21;4.32;;;2.83;;
45792;SDS011;31495;42.740;22.908;2023-03-29T00:35:21;3.90;;;2.50;;
45792;SDS011;31495;42.740;22.908;2023-03-29T00:36:20;4.57;;;2.90;;
45792;SDS011;31495;42.740;22.908;2023-03-29T00:37:21;4.45;;;2.53;;
45792;SDS011;31495;42.740;22.908;2023-03-29T00:38:24;8.02;;;2.80;;
45792;SDS011;31495;42.740;22.908;2023-03-29T00:39:24;4.70;;;2.50;;
45792;SDS011;31495;42.740;22.908;2023-03-29T00:40:26;3.72;;;2.25;;
45792;SDS011;31495;42.740;22.908;2023-03-29T00:41:25;4.80;;;2.58;;
45792;SDS011;31495;42.740;22.908;2023-03-29T00:42:25;4.63;;;2.75;;
45792;SDS011;31495;42.740;22.908;2023-03-29T00:43:25;7.82;;;2.75;;
45792;SDS011;31495;42.740;22.908;2023-03-29T00:44:51;9.45;;;2.85;;
45792;SDS011;31495;42.740;22.908;2023-03-29T00:46:10;4.50;;;2.65;;
45792;SDS011;31495;42.740;22.908;2023-03-29T00:47:10;3.50;;;2.70;;
45792;SDS011;31495;42.740;22.908;2023-03-29T00:48:10;4.30;;;2.42;;
45792;SDS011;31495;42.740;22.908;2023-03-29T00:49:11;5.72;;;3.28;;
45792;SDS011;31495;42.740;22.908;2023-03-29T00:51:16;4.30;;;2.58;;
45792;SDS011;31495;42.740;22.908;2023-03-29T00:52:19;4.72;;;2.92;;
45792;SDS011;31495;42.740;22.908;2023-03-29T00:54:47;3.38;;;2.00;;
45792;SDS011;31495;42.740;22.908;2023-03-29T00:56:26;8.40;;;2.80;;
45792;SDS011;31495;42.740;22.908;2023-03-29T00:57:21;3.00;;;1.48;;
45792;SDS011;31495;42.740;22.908;2023-03-29T00:59:06;11.23;;;3.30;;
45792;SDS011;31495;42.740;22.908;2023-03-29T00:59:45;11.38;;;2.70;;
45792;SDS011;31495;42.740;22.908;2023-03-29T01:00:53;7.82;;;2.55;;
45792;SDS011;31495;42.740;22.908;2023-03-29T01:02:00;4.22;;;2.50;;
45792;SDS011;31495;42.740;22.908;2023-03-29T01:03:06;10.80;;;3.17;;
45792;SDS011;31495;42.740;22.908;2023-03-29T01:04:12;4.15;;;2.38;;
45792;SDS011;31495;42.740;22.908;2023-03-29T01:05:26;9.82;;;2.33;;
45792;SDS011;31495;42.740;22.908;2023-03-29T01:06:29;3.90;;;1.95;;
45792;SDS011;31495;42.740;22.908;2023-03-29T01:07:36;7.72;;;2.95;;
45792;SDS011;31495;42.740;22.908;2023-03-29T01:08:59;5.82;;;2.80;;
45792;SDS011;31495;42.740;22.908;2023-03-29T01:10:13;3.97;;;2.28;;
45792;SDS011;31495;42.740;22.908;2023-03-29T01:11:18;6.80;;;3.28;;
45792;SDS011;31495;42.740;22.908;2023-03-29T01:12:23;5.95;;;3.15;;
45792;SDS011;31495;42.740;22.908;2023-03-29T01:13:47;5.22;;;3.13;;
45792;SDS011;31495;42.740;22.908;2023-03-29T01:14:58;5.40;;;3.20;;
45792;SDS011;31495;42.740;22.908;2023-03-29T01:16:10;4.75;;;2.45;;
45792;SDS011;31495;42.740;22.908;2023-03-29T01:17:12;8.32;;;3.10;;
45792;SDS011;31495;42.740;22.908;2023-03-29T01:18:11;5.78;;;3.22;;
45792;SDS011;31495;42.740;22.908;2023-03-29T01:19:12;3.40;;;2.27;;
45792;SDS011;31495;42.740;22.908;2023-03-29T01:25:29;4.05;;;2.63;;
45792;SDS011;31495;42.740;22.908;2023-03-29T01:28:00;6.20;;;2.92;;
45792;SDS011;31495;42.740;22.908;2023-03-29T01:29:14;6.47;;;2.70;;
45792;SDS011;31495;42.740;22.908;2023-03-29T01:30:25;3.90;;;2.53;;
45792;SDS011;31495;42.740;22.908;2023-03-29T01:31:33;3.78;;;1.95;;
45792;SDS011;31495;42.740;22.908;2023-03-29T01:32:46;3.50;;;1.77;;
45792;SDS011;31495;42.740;22.908;2023-03-29T01:33:51;11.50;;;3.58;;
45792;SDS011;31495;42.740;22.908;2023-03-29T01:36:21;8.80;;;3.20;;
45792;SDS011;31495;42.740;22.908;2023-03-29T01:37:30;5.38;;;2.85;;
45792;SDS011;31495;42.740;22.908;2023-03-29T01:38:41;5.28;;;2.40;;
45792;SDS011;31495;42.740;22.908;2023-03-29T01:39:47;9.88;;;2.65;;
45792;SDS011;31495;42.740;22.908;2023-03-29T01:40:46;4.72;;;2.38;;
45792;SDS011;31495;42.740;22.908;2023-03-29T01:42:09;3.85;;;2.30;;
45792;SDS011;31495;42.740;22.908;2023-03-29T01:44:47;3.83;;;2.20;;
45792;SDS011;31495;42.740;22.908;2023-03-29T01:45:57;5.32;;;2.78;;
45792;SDS011;31495;42.740;22.908;2023-03-29T01:47:14;5.40;;;2.60;;
45792;SDS011;31495;42.740;22.908;2023-03-29T01:48:58;7.32;;;2.80;;
45792;SDS011;31495;42.740;22.908;2023-03-29T01:49:57;4.13;;;2.10;;
45792;SDS011;31495;42.740;22.908;2023-03-29T01:51:10;4.90;;;3.03;;
45792;SDS011;31495;42.740;22.908;2023-03-29T01:54:42;4.78;;;2.92;;
45792;SDS011;31495;42.740;22.908;2023-03-29T01:55:55;6.07;;;2.00;;
45792;SDS011;31495;42.740;22.908;2023-03-29T01:56:57;4.25;;;2.45;;
45792;SDS011;31495;42.740;22.908;2023-03-29T01:59:01;5.47;;;2.60;;
45792;SDS011;31495;42.740;22.908;2023-03-29T02:00:06;6.18;;;2.60;;
45792;SDS011;31495;42.740;22.908;2023-03-29T02:01:10;5.07;;;2.20;;
45792;SDS011;31495;42.740;22.908;2023-03-29T02:02:15;8.07;;;1.75;;
45792;SDS011;31495;42.740;22.908;2023-03-29T02:03:17;5.40;;;2.40;;
45792;SDS011;31495;42.740;22.908;2023-03-29T02:04:21;4.35;;;2.55;;
45792;SDS011;31495;42.740;22.908;2023-03-29T02:05:29;5.68;;;2.35;;
45792;SDS011;31495;42.740;22.908;2023-03-29T02:06:30;4.88;;;3.90;;
45792;SDS011;31495;42.740;22.908;2023-03-29T02:07:31;5.63;;;2.45;;
45792;SDS011;31495;42.740;22.908;2023-03-29T02:08:35;3.75;;;2.28;;
45792;SDS011;31495;42.740;22.908;2023-03-29T02:09:37;6.72;;;2.67;;
45792;SDS011;31495;42.740;22.908;2023-03-29T02:10:37;3.83;;;2.53;;
45792;SDS011;31495;42.740;22.908;2023-03-29T02:11:37;9.43;;;2.55;;
45792;SDS011;31495;42.740;22.908;2023-03-29T02:12:39;5.47;;;2.58;;
45792;SDS011;31495;42.740;22.908;2023-03-29T02:13:39;5.55;;;2.70;;
45792;SDS011;31495;42.740;22.908;2023-03-29T02:14:40;4.18;;;2.42;;
45792;SDS011;31495;42.740;22.908;2023-03-29T02:15:39;6.20;;;2.67;;
45792;SDS011;31495;42.740;22.908;2023-03-29T02:16:39;6.40;;;1.95;;
45792;SDS011;31495;42.740;22.908;2023-03-29T02:17:38;3.75;;;2.10;;
45792;SDS011;31495;42.740;22.908;2023-03-29T02:18:38;4.95;;;2.22;;
45792;SDS011;31495;42.740;22.908;2023-03-29T02:19:39;5.18;;;2.25;;
45792;SDS011;31495;42.740;22.908;2023-03-29T02:20:39;5.78;;;2.50;;
45792;SDS011;31495;42.740;22.908;2023-03-29T02:21:46;4.00;;;2.60;;
45792;SDS011;31495;42.740;22.908;2023-03-29T02:23:03;5.18;;;2.55;;
45792;SDS011;31495;42.740;22.908;2023-03-29T02:24:19;4.65;;;2.50;;
45792;SDS011;31495;42.740;22.908;2023-03-29T02:25:22;4.88;;;1.80;;
45792;SDS011;31495;42.740;22.908;2023-03-29T02:26:22;4.22;;;2.13;;
45792;SDS011;31495;42.740;22.908;2023-03-29T02:27:22;3.83;;;2.08;;
45792;SDS011;31495;42.740;22.908;2023-03-29T02:28:22;3.25;;;2.03;;
45792;SDS011;31495;42.740;22.908;2023-03-29T02:29:23;3.67;;;1.27;;
45792;SDS011;31495;42.740;22.908;2023-03-29T02:30:25;3.25;;;1.70;;
45792;SDS011;31495;42.740;22.908;2023-03-29T02:31:50;4.97;;;1.77;;
45792;SDS011;31495;42.740;22.908;2023-03-29T02:32:59;5.18;;;1.70;;
45792;SDS011;31495;42.740;22.908;2023-03-29T02:35:20;4.00;;;1.77;;
45792;SDS011;31495;42.740;22.908;2023-03-29T02:36:31;3.97;;;1.85;;
45792;SDS011;31495;42.740;22.908;2023-03-29T02:37:39;6.00;;;2.10;;
45792;SDS011;31495;42.740;22.908;2023-03-29T02:38:43;5.18;;;2.38;;
45792;SDS011;31495;42.740;22.908;2023-03-29T02:39:43;3.55;;;1.90;;
45792;SDS011;31495;42.740;22.908;2023-03-29T02:40:46;3.25;;;1.70;;
45792;SDS011;31495;42.740;22.908;2023-03-29T02:41:47;4.20;;;2.00;;
45792;SDS011;31495;42.740;22.908;2023-03-29T02:42:48;3.97;;;2.30;;
45792;SDS011;31495;42.740;22.908;2023-03-29T02:43:48;5.53;;;2.05;;
45792;SDS011;31495;42.740;22.908;2023-03-29T02:44:49;3.67;;;2.10;;
45792;SDS011;31495;42.740;22.908;2023-03-29T02:45:52;2.95;;;1.70;;
45792;SDS011;31495;42.740;22.908;2023-03-29T02:46:57;3.55;;;2.00;;
45792;SDS011;31495;42.740;22.908;2023-03-29T02:48:02;3.80;;;2.10;;
45792;SDS011;31495;42.740;22.908;2023-03-29T02:49:04;5.05;;;2.28;;
45792;SDS011;31495;42.740;22.908;2023-03-29T02:50:05;5.88;;;2.55;;
45792;SDS011;31495;42.740;22.908;2023-03-29T02:51:16;2.63;;;1.45;;
45792;SDS011;31495;42.740;22.908;2023-03-29T02:52:27;3.75;;;1.60;;
45792;SDS011;31495;42.740;22.908;2023-03-29T02:54:13;7.05;;;2.47;;
45792;SDS011;31495;42.740;22.908;2023-03-29T02:55:14;2.97;;;1.95;;
45792;SDS011;31495;42.740;22.908;2023-03-29T02:56:15;5.45;;;2.38;;
45792;SDS011;31495;42.740;22.908;2023-03-29T02:57:16;3.85;;;1.77;;
45792;SDS011;31495;42.740;22.908;2023-03-29T02:58:20;4.50;;;1.65;;
45792;SDS011;31495;42.740;22.908;2023-03-29T02:59:26;4.00;;;2.13;;
45792;SDS011;31495;42.740;22.908;2023-03-29T03:01:27;2.83;;;1.80;;
45792;SDS011;31495;42.740;22.908;2023-03-29T03:02:26;4.43;;;2.08;;
45792;SDS011;31495;42.740;22.908;2023-03-29T03:03:27;4.03;;;1.67;;
45792;SDS011;31495;42.740;22.908;2023-03-29T03:04:27;4.88;;;2.13;;
45792;SDS011;31495;42.740;22.908;2023-03-29T03:05:27;13.00;;;3.00;;
45792;SDS011;31495;42.740;22.908;2023-03-29T03:06:26;5.00;;;2.28;;
45792;SDS011;31495;42.740;22.908;2023-03-29T03:07:27;5.22;;;2.45;;
45792;SDS011;31495;42.740;22.908;2023-03-29T03:08:26;4.85;;;2.35;;
45792;SDS011;31495;42.740;22.908;2023-03-29T03:09:26;5.68;;;2.75;;
45792;SDS011;31495;42.740;22.908;2023-03-29T03:10:26;3.63;;;1.75;;
45792;SDS011;31495;42.740;22.908;2023-03-29T03:11:26;4.05;;;2.05;;
45792;SDS011;31495;42.740;22.908;2023-03-29T03:12:26;6.35;;;2.45;;
45792;SDS011;31495;42.740;22.908;2023-03-29T03:13:25;5.78;;;2.40;;
45792;SDS011;31495;42.740;22.908;2023-03-29T03:14:25;3.88;;;1.98;;
45792;SDS011;31495;42.740;22.908;2023-03-29T03:15:26;5.22;;;2.05;;
45792;SDS011;31495;42.740;22.908;2023-03-29T03:16:26;3.35;;;1.60;;
45792;SDS011;31495;42.740;22.908;2023-03-29T03:17:26;5.15;;;2.42;;
45792;SDS011;31495;42.740;22.908;2023-03-29T03:18:25;4.00;;;1.98;;
45792;SDS011;31495;42.740;22.908;2023-03-29T03:19:25;2.30;;;1.50;;
45792;SDS011;31495;42.740;22.908;2023-03-29T03:20:25;2.08;;;1.23;;
45792;SDS011;31495;42.740;22.908;2023-03-29T03:21:25;5.07;;;2.35;;
45792;SDS011;31495;42.740;22.908;2023-03-29T03:22:26;4.15;;;1.83;;
45792;SDS011;31495;42.740;22.908;2023-03-29T03:23:25;6.60;;;3.25;;
45792;SDS011;31495;42.740;22.908;2023-03-29T03:24:26;3.15;;;1.60;;
45792;SDS011;31495;42.740;22.908;2023-03-29T03:25:26;4.47;;;2.10;;
45792;SDS011;31495;42.740;22.908;2023-03-29T03:26:26;3.08;;;1.58;;
45792;SDS011;31495;42.740;22.908;2023-03-29T03:27:28;5.57;;;2.35;;
45792;SDS011;31495;42.740;22.908;2023-03-29T03:28:27;3.30;;;1.70;;
45792;SDS011;31495;42.740;22.908;2023-03-29T03:29:27;2.75;;;1.00;;
45792;SDS011;31495;42.740;22.908;2023-03-29T03:30:27;2.78;;;1.30;;
45792;SDS011;31495;42.740;22.908;2023-03-29T03:31:27;4.80;;;2.15;;
45792;SDS011;31495;42.740;22.908;2023-03-29T03:32:26;8.27;;;3.25;;
45792;SDS011;31495;42.740;22.908;2023-03-29T03:33:26;3.00;;;1.50;;
45792;SDS011;31495;42.740;22.908;2023-03-29T03:34:26;5.78;;;3.38;;
45792;SDS011;31495;42.740;22.908;2023-03-29T03:35:26;5.70;;;2.65;;
45792;SDS011;31495;42.740;22.908;2023-03-29T03:36:25;5.18;;;2.40;;
45792;SDS011;31495;42.740;22.908;2023-03-29T03:38:30;8.65;;;2.63;;
45792;SDS011;31495;42.740;22.908;2023-03-29T03:39:30;7.53;;;2.40;;
45792;SDS011;31495;42.740;22.908;2023-03-29T03:40:30;3.33;;;1.63;;
45792;SDS011;31495;42.740;22.908;2023-03-29T03:41:30;6.78;;;2.05;;
45792;SDS011;31495;42.740;22.908;2023-03-29T03:42:30;6.15;;;1.83;;
45792;SDS011;31495;42.740;22.908;2023-03-29T03:43:30;4.15;;;2.10;;
45792;SDS011;31495;42.740;22.908;2023-03-29T03:44:30;4.53;;;2.65;;
45792;SDS011;31495;42.740;22.908;2023-03-29T03:45:30;6.18;;;2.35;;
45792;SDS011;31495;42.740;22.908;2023-03-29T03:46:29;5.03;;;2.05;;
45792;SDS011;31495;42.740;22.908;2023-03-29T03:47:29;4.30;;;2.00;;
45792;SDS011;31495;42.740;22.908;2023-03-29T03:48:28;6.47;;;2.50;;
45792;SDS011;31495;42.740;22.908;2023-03-29T03:49:28;5.38;;;2.17;;
45792;SDS011;31495;42.740;22.908;2023-03-29T03:50:28;2.83;;;1.48;;
45792;SDS011;31495;42.740;22.908;2023-03-29T03:51:27;2.72;;;1.55;;
45792;SDS011;31495;42.740;22.908;2023-03-29T03:52:27;6.60;;;3.33;;
45792;SDS011;31495;42.740;22.908;2023-03-29T03:53:26;4.10;;;2.22;;
45792;SDS011;31495;42.740;22.908;2023-03-29T03:54:26;7.32;;;2.25;;
45792;SDS011;31495;42.740;22.908;2023-03-29T03:55:26;5.47;;;1.70;;
45792;SDS011;31495;42.740;22.908;2023-03-29T03:56:27;3.22;;;1.70;;
45792;SDS011;31495;42.740;22.908;2023-03-29T03:57:27;4.03;;;2.03;;
45792;SDS011;31495;42.740;22.908;2023-03-29T03:58:27;4.50;;;2.70;;
45792;SDS011;31495;42.740;22.908;2023-03-29T03:59:27;4.15;;;2.05;;
45792;SDS011;31495;42.740;22.908;2023-03-29T04:00:27;5.68;;;2.42;;
45792;SDS011;31495;42.740;22.908;2023-03-29T04:01:27;4.68;;;2.08;;
45792;SDS011;31495;42.740;22.908;2023-03-29T04:02:27;3.90;;;1.63;;
45792;SDS011;31495;42.740;22.908;2023-03-29T04:03:26;7.00;;;2.35;;
45792;SDS011;31495;42.740;22.908;2023-03-29T04:04:26;3.25;;;1.48;;
45792;SDS011;31495;42.740;22.908;2023-03-29T04:05:26;3.88;;;2.20;;
45792;SDS011;31495;42.740;22.908;2023-03-29T04:06:26;5.88;;;1.75;;
45792;SDS011;31495;42.740;22.908;2023-03-29T04:07:28;4.05;;;2.10;;
45792;SDS011;31495;42.740;22.908;2023-03-29T04:08:28;7.28;;;2.47;;
45792;SDS011;31495;42.740;22.908;2023-03-29T04:09:28;7.75;;;3.20;;
45792;SDS011;31495;42.740;22.908;2023-03-29T04:10:29;4.35;;;1.60;;
45792;SDS011;31495;42.740;22.908;2023-03-29T04:11:29;8.20;;;2.38;;
45792;SDS011;31495;42.740;22.908;2023-03-29T04:12:28;4.88;;;1.60;;
45792;SDS011;31495;42.740;22.908;2023-03-29T04:13:28;5.38;;;2.60;;
45792;SDS011;31495;42.740;22.908;2023-03-29T04:14:28;3.85;;;2.10;;
45792;SDS011;31495;42.740;22.908;2023-03-29T04:15:30;8.32;;;2.95;;
45792;SDS011;31495;42.740;22.908;2023-03-29T04:16:31;5.25;;;2.47;;
45792;SDS011;31495;42.740;22.908;2023-03-29T04:17:30;4.60;;;2.30;;
45792;SDS011;31495;42.740;22.908;2023-03-29T04:18:30;6.47;;;3.20;;
45792;SDS011;31495;42.740;22.908;2023-03-29T04:19:30;5.60;;;2.22;;
45792;SDS011;31495;42.740;22.908;2023-03-29T04:20:29;3.22;;;1.30;;
45792;SDS011;31495;42.740;22.908;2023-03-29T04:21:29;6.63;;;2.38;;
45792;SDS011;31495;42.740;22.908;2023-03-29T04:22:29;6.05;;;3.15;;
45792;SDS011;31495;42.740;22.908;2023-03-29T04:23:28;5.65;;;3.00;;
45792;SDS011;31495;42.740;22.908;2023-03-29T04:24:28;11.10;;;4.20;;
45792;SDS011;31495;42.740;22.908;2023-03-29T04:25:27;8.43;;;4.78;;
45792;SDS011;31495;42.740;22.908;2023-03-29T04:26:27;10.98;;;4.45;;
45792;SDS011;31495;42.740;22.908;2023-03-29T04:27:27;15.10;;;6.63;;
45792;SDS011;31495;42.740;22.908;2023-03-29T04:28:26;12.27;;;3.97;;
45792;SDS011;31495;42.740;22.908;2023-03-29T04:29:26;11.57;;;4.10;;
45792;SDS011;31495;42.740;22.908;2023-03-29T04:30:25;5.72;;;2.92;;
45792;SDS011;31495;42.740;22.908;2023-03-29T04:31:24;7.03;;;3.90;;
45792;SDS011;31495;42.740;22.908;2023-03-29T04:32:24;7.20;;;3.00;;
45792;SDS011;31495;42.740;22.908;2023-03-29T04:33:24;9.20;;;4.03;;
45792;SDS011;31495;42.740;22.908;2023-03-29T04:34:24;11.00;;;4.63;;
45792;SDS011;31495;42.740;22.908;2023-03-29T04:35:23;7.13;;;3.70;;
45792;SDS011;31495;42.740;22.908;2023-03-29T04:36:23;7.00;;;3.33;;
45792;SDS011;31495;42.740;22.908;2023-03-29T04:37:23;4.40;;;2.03;;
45792;SDS011;31495;42.740;22.908;2023-03-29T04:38:23;8.77;;;3.22;;
45792;SDS011;31495;42.740;22.908;2023-03-29T04:39:23;8.05;;;3.90;;
45792;SDS011;31495;42.740;22.908;2023-03-29T04:40:29;9.45;;;4.25;;
45792;SDS011;31495;42.740;22.908;2023-03-29T04:41:29;6.07;;;2.78;;
45792;SDS011;31495;42.740;22.908;2023-03-29T04:42:30;8.73;;;4.00;;
45792;SDS011;31495;42.740;22.908;2023-03-29T04:43:29;7.03;;;3.70;;
45792;SDS011;31495;42.740;22.908;2023-03-29T04:44:29;5.00;;;2.85;;
45792;SDS011;31495;42.740;22.908;2023-03-29T04:45:31;9.48;;;3.50;;
45792;SDS011;31495;42.740;22.908;2023-03-29T04:46:31;5.38;;;3.10;;
45792;SDS011;31495;42.740;22.908;2023-03-29T04:47:31;7.18;;;3.22;;
45792;SDS011;31495;42.740;22.908;2023-03-29T04:48:30;7.68;;;3.17;;
45792;SDS011;31495;42.740;22.908;2023-03-29T04:49:30;12.35;;;4.03;;
45792;SDS011;31495;42.740;22.908;2023-03-29T04:50:30;7.10;;;4.05;;
45792;SDS011;31495;42.740;22.908;2023-03-29T04:51:30;8.63;;;4.43;;
45792;SDS011;31495;42.740;22.908;2023-03-29T04:52:31;8.88;;;4.50;;
45792;SDS011;31495;42.740;22.908;2023-03-29T04:53:31;6.93;;;3.30;;
45792;SDS011;31495;42.740;22.908;2023-03-29T04:54:31;6.10;;;3.47;;
45792;SDS011;31495;42.740;22.908;2023-03-29T04:55:30;6.57;;;3.67;;
45792;SDS011;31495;42.740;22.908;2023-03-29T04:56:29;5.88;;;2.90;;
45792;SDS011;31495;42.740;22.908;2023-03-29T04:57:29;5.95;;;2.72;;
45792;SDS011;31495;42.740;22.908;2023-03-29T04:58:28;3.85;;;2.65;;
45792;SDS011;31495;42.740;22.908;2023-03-29T04:59:28;6.20;;;3.13;;
45792;SDS011;31495;42.740;22.908;2023-03-29T05:00:28;5.30;;;2.78;;
45792;SDS011;31495;42.740;22.908;2023-03-29T05:01:29;7.07;;;3.78;;
45792;SDS011;31495;42.740;22.908;2023-03-29T05:02:28;9.40;;;4.97;;
45792;SDS011;31495;42.740;22.908;2023-03-29T05:03:30;7.53;;;4.25;;
45792;SDS011;31495;42.740;22.908;2023-03-29T05:04:30;5.43;;;2.75;;
45792;SDS011;31495;42.740;22.908;2023-03-29T05:05:30;6.88;;;2.58;;
45792;SDS011;31495;42.740;22.908;2023-03-29T05:06:30;4.40;;;2.90;;
45792;SDS011;31495;42.740;22.908;2023-03-29T05:07:30;11.43;;;3.08;;
45792;SDS011;31495;42.740;22.908;2023-03-29T05:08:29;7.88;;;2.95;;
45792;SDS011;31495;42.740;22.908;2023-03-29T05:09:28;3.30;;;1.85;;
45792;SDS011;31495;42.740;22.908;2023-03-29T05:10:28;4.80;;;2.58;;
45792;SDS011;31495;42.740;22.908;2023-03-29T05:11:28;5.75;;;2.97;;
45792;SDS011;31495;42.740;22.908;2023-03-29T05:12:28;5.63;;;3.00;;
45792;SDS011;31495;42.740;22.908;2023-03-29T05:13:28;7.22;;;3.13;;
45792;SDS011;31495;42.740;22.908;2023-03-29T05:14:27;5.43;;;3.00;;
45792;SDS011;31495;42.740;22.908;2023-03-29T05:15:26;6.35;;;3.47;;
45792;SDS011;31495;42.740;22.908;2023-03-29T05:16:26;8.23;;;3.38;;
45792;SDS011;31495;42.740;22.908;2023-03-29T05:17:28;6.63;;;2.90;;
45792;SDS011;31495;42.740;22.908;2023-03-29T05:18:28;6.97;;;2.78;;
45792;SDS011;31495;42.740;22.908;2023-03-29T05:19:28;4.70;;;2.38;;
45792;SDS011;31495;42.740;22.908;2023-03-29T05:20:27;7.90;;;3.35;;
45792;SDS011;31495;42.740;22.908;2023-03-29T05:21:27;7.40;;;3.55;;
45792;SDS011;31495;42.740;22.908;2023-03-29T05:22:27;5.20;;;2.67;;
45792;SDS011;31495;42.740;22.908;2023-03-29T05:23:27;5.00;;;2.85;;
45792;SDS011;31495;42.740;22.908;2023-03-29T05:24:27;6.00;;;2.72;;
45792;SDS011;31495;42.740;22.908;2023-03-29T05:25:26;5.85;;;3.53;;
45792;SDS011;31495;42.740;22.908;2023-03-29T05:26:26;8.00;;;5.10;;
45792;SDS011;31495;42.740;22.908;2023-03-29T05:27:26;13.85;;;8.25;;
45792;SDS011;31495;42.740;22.908;2023-03-29T05:28:26;11.90;;;5.65;;
45792;SDS011;31495;42.740;22.908;2023-03-29T05:29:25;16.65;;;7.15;;
45792;SDS011;31495;42.740;22.908;2023-03-29T05:30:25;9.43;;;3.72;;
45792;SDS011;31495;42.740;22.908;2023-03-29T05:31:25;11.18;;;5.22;;
45792;SDS011;31495;42.740;22.908;2023-03-29T05:32:24;14.30;;;6.53;;
45792;SDS011;31495;42.740;22.908;2023-03-29T05:33:24;15.93;;;7.15;;
45792;SDS011;31495;42.740;22.908;2023-03-29T05:34:23;16.83;;;6.78;;
45792;SDS011;31495;42.740;22.908;2023-03-29T05:35:24;6.68;;;3.30;;
45792;SDS011;31495;42.740;22.908;2023-03-29T05:36:24;11.23;;;4.72;;
45792;SDS011;31495;42.740;22.908;2023-03-29T05:37:23;8.82;;;2.85;;
45792;SDS011;31495;42.740;22.908;2023-03-29T05:38:24;8.43;;;4.40;;
45792;SDS011;31495;42.740;22.908;2023-03-29T05:39:24;10.55;;;4.65;;
45792;SDS011;31495;42.740;22.908;2023-03-29T05:40:24;5.53;;;2.47;;
45792;SDS011;31495;42.740;22.908;2023-03-29T05:41:24;7.00;;;1.98;;
45792;SDS011;31495;42.740;22.908;2023-03-29T05:42:24;8.13;;;3.85;;
45792;SDS011;31495;42.740;22.908;2023-03-29T05:43:23;10.93;;;3.70;;
45792;SDS011;31495;42.740;22.908;2023-03-29T05:44:22;7.63;;;3.38;;
45792;SDS011;31495;42.740;22.908;2023-03-29T05:45:22;9.68;;;3.42;;
45792;SDS011;31495;42.740;22.908;2023-03-29T05:46:22;3.72;;;2.13;;
45792;SDS011;31495;42.740;22.908;2023-03-29T05:47:22;4.65;;;2.47;;
45792;SDS011;31495;42.740;22.908;2023-03-29T05:48:22;7.00;;;3.75;;
45792;SDS011;31495;42.740;22.908;2023-03-29T05:49:22;8.35;;;4.22;;
45792;SDS011;31495;42.740;22.908;2023-03-29T05:50:21;10.13;;;4.18;;
45792;SDS011;31495;42.740;22.908;2023-03-29T05:51:21;5.22;;;2.92;;
45792;SDS011;31495;42.740;22.908;2023-03-29T05:52:22;18.13;;;5.32;;
45792;SDS011;31495;42.740;22.908;2023-03-29T05:53:23;9.88;;;4.50;;
45792;SDS011;31495;42.740;22.908;2023-03-29T05:54:23;5.45;;;2.75;;
45792;SDS011;31495;42.740;22.908;2023-03-29T05:55:23;6.22;;;2.67;;
45792;SDS011;31495;42.740;22.908;2023-03-29T05:56:22;4.80;;;2.70;;
45792;SDS011;31495;42.740;22.908;2023-03-29T05:57:22;6.65;;;3.05;;
45792;SDS011;31495;42.740;22.908;2023-03-29T05:58:22;8.50;;;2.60;;
45792;SDS011;31495;42.740;22.908;2023-03-29T05:59:24;6.00;;;2.25;;
45792;SDS011;31495;42.740;22.908;2023-03-29T06:00:26;4.25;;;2.47;;
45792;SDS011;31495;42.740;22.908;2023-03-29T06:02:27;5.13;;;2.30;;
45792;SDS011;31495;42.740;22.908;2023-03-29T06:03:27;8.52;;;2.70;;
45792;SDS011;31495;42.740;22.908;2023-03-29T06:04:26;8.77;;;3.90;;
45792;SDS011;31495;42.740;22.908;2023-03-29T06:05:26;5.10;;;2.67;;
45792;SDS011;31495;42.740;22.908;2023-03-29T06:06:25;3.08;;;1.92;;
45792;SDS011;31495;42.740;22.908;2023-03-29T06:07:25;5.68;;;3.03;;
45792;SDS011;31495;42.740;22.908;2023-03-29T06:08:25;4.97;;;2.40;;
45792;SDS011;31495;42.740;22.908;2023-03-29T06:09:25;4.32;;;2.55;;
45792;SDS011;31495;42.740;22.908;2023-03-29T06:10:25;7.85;;;2.20;;
45792;SDS011;31495;42.740;22.908;2023-03-29T06:11:24;8.10;;;2.67;;
45792;SDS011;31495;42.740;22.908;2023-03-29T06:12:24;3.60;;;2.60;;
45792;SDS011;31495;42.740;22.908;2023-03-29T06:13:24;4.80;;;2.17;;
45792;SDS011;31495;42.740;22.908;2023-03-29T06:14:24;3.15;;;1.60;;
45792;SDS011;31495;42.740;22.908;2023-03-29T06:15:23;4.40;;;2.45;;
45792;SDS011;31495;42.740;22.908;2023-03-29T06:16:23;3.88;;;1.75;;
45792;SDS011;31495;42.740;22.908;2023-03-29T06:17:23;4.05;;;1.90;;
45792;SDS011;31495;42.740;22.908;2023-03-29T06:18:23;4.00;;;1.80;;
45792;SDS011;31495;42.740;22.908;2023-03-29T06:19:23;4.13;;;2.78;;
45792;SDS011;31495;42.740;22.908;2023-03-29T06:20:23;8.63;;;2.42;;
45792;SDS011;31495;42.740;22.908;2023-03-29T06:21:23;5.75;;;2.20;;
45792;SDS011;31495;42.740;22.908;2023-03-29T06:22:24;3.85;;;1.67;;
45792;SDS011;31495;42.740;22.908;2023-03-29T06:23:24;5.50;;;2.15;;
45792;SDS011;31495;42.740;22.908;2023-03-29T06:24:24;6.90;;;2.65;;
45792;SDS011;31495;42.740;22.908;2023-03-29T06:25:24;2.25;;;1.08;;
45792;SDS011;31495;42.740;22.908;2023-03-29T06:26:23;4.70;;;1.40;;
45792;SDS011;31495;42.740;22.908;2023-03-29T06:27:23;6.65;;;2.38;;
45792;SDS011;31495;42.740;22.908;2023-03-29T06:28:22;6.13;;;2.95;;